createdAt,value
2018-02-02T00:00:02.278Z,1.80
2018-02-02T00:02:30.137Z,1.70
2018-02-02T00:04:59.646Z,1.60
2018-02-02T00:07:27.516Z,1.50
2018-02-02T00:09:55.378Z,1.40
2018-02-02T00:12:23.245Z,1.30
2018-02-02T00:14:51.113Z,1.30
2018-02-02T00:17:18.986Z,1.30
2018-02-02T00:19:46.846Z,1.30
2018-02-02T00:22:14.718Z,1.40
2018-02-02T00:24:42.582Z,1.40
2018-02-02T00:27:10.448Z,1.40
2018-02-02T00:29:38.340Z,1.40
2018-02-02T00:32:06.184Z,1.30
2018-02-02T00:34:34.258Z,1.30
2018-02-02T00:37:02.160Z,1.20
2018-02-02T00:39:31.046Z,1.20
2018-02-02T00:42:00.009Z,1.20
2018-02-02T00:44:27.883Z,1.20
2018-02-02T00:46:56.872Z,1.10
2018-02-02T00:49:24.839Z,1.10
2018-02-02T00:51:59.977Z,1.10
2018-02-02T00:54:27.945Z,1.10
2018-02-02T00:56:55.916Z,1.10
2018-02-02T00:59:24.891Z,1.00
2018-02-02T01:01:53.289Z,1.10
2018-02-02T01:04:21.157Z,1.10
2018-02-02T01:06:49.125Z,1.20
2018-02-02T01:09:17.916Z,1.30
2018-02-02T01:11:45.884Z,1.30
2018-02-02T01:14:13.752Z,1.40
2018-02-02T01:16:41.618Z,1.30
2018-02-02T01:19:10.101Z,1.30
2018-02-02T01:21:37.968Z,1.30
2018-02-02T01:24:06.142Z,1.30
2018-02-02T01:26:34.831Z,1.30
2018-02-02T01:29:02.902Z,1.30
2018-02-02T01:31:31.997Z,1.30
2018-02-02T01:34:00.069Z,1.30
2018-02-02T01:36:28.044Z,1.30
2018-02-02T01:38:56.521Z,1.20
2018-02-02T01:41:24.694Z,1.10
2018-02-02T01:43:52.563Z,1.00
2018-02-02T01:46:20.942Z,1.10
2018-02-02T01:48:49.013Z,1.10
2018-02-02T01:51:17.141Z,1.10
2018-02-02T01:53:45.876Z,1.10
2018-02-02T01:56:15.054Z,1.20
2018-02-02T01:58:43.046Z,1.20
2018-02-02T02:01:10.911Z,1.30
2018-02-02T02:03:39.700Z,1.30
2018-02-02T02:06:07.669Z,1.40
2018-02-02T02:08:36.356Z,1.40
2018-02-02T02:11:04.428Z,1.40
2018-02-02T02:13:32.500Z,1.30
2018-02-02T02:16:00.472Z,1.40
2018-02-02T02:18:28.339Z,1.20
2018-02-02T02:20:57.127Z,1.20
2018-02-02T02:23:24.993Z,1.20
2018-02-02T02:25:54.602Z,1.20
2018-02-02T02:28:22.586Z,1.30
2018-02-02T02:30:50.849Z,1.30
2018-02-02T02:33:20.149Z,1.20
2018-02-02T02:35:48.016Z,1.10
2018-02-02T02:38:16.910Z,1.20
2018-02-02T02:40:45.082Z,1.20
2018-02-02T02:43:14.588Z,1.30
2018-02-02T02:45:42.454Z,1.30
2018-02-02T02:48:11.038Z,1.30
2018-02-02T02:50:39.122Z,1.30
2018-02-02T02:53:07.911Z,1.40
2018-02-02T02:55:36.588Z,1.50
2018-02-02T02:58:06.195Z,1.50
2018-02-02T03:00:34.164Z,1.50
2018-02-02T03:03:02.032Z,1.50
2018-02-02T03:05:30.002Z,1.60
2018-02-02T03:07:57.712Z,1.60
2018-02-02T03:10:26.556Z,1.60
2018-02-02T03:12:55.721Z,1.60
2018-02-02T03:15:23.621Z,1.70
2018-02-02T03:17:51.489Z,1.70
2018-02-02T03:20:19.459Z,1.70
2018-02-02T03:22:48.093Z,1.70
2018-02-02T03:25:16.588Z,1.80
2018-02-02T03:27:44.498Z,1.80
2018-02-02T03:30:12.362Z,1.80
2018-02-02T03:32:40.229Z,1.80
2018-02-02T03:35:09.018Z,1.70
2018-02-02T03:37:36.749Z,1.70
2018-02-02T03:40:04.557Z,1.60
2018-02-02T03:42:32.516Z,1.70
2018-02-02T03:45:01.305Z,1.70
2018-02-02T03:47:30.197Z,1.80
2018-02-02T03:49:58.372Z,1.80
2018-02-02T03:52:26.342Z,1.80
2018-02-02T03:54:55.338Z,1.70
2018-02-02T03:57:24.534Z,1.80
2018-02-02T03:59:52.404Z,1.80
2018-02-02T04:02:20.273Z,1.90
2018-02-02T04:04:49.058Z,1.90
2018-02-02T04:07:16.924Z,1.80
2018-02-02T04:09:44.794Z,1.80
2018-02-02T04:12:12.761Z,1.90
2018-02-02T04:14:40.628Z,1.80
2018-02-02T04:17:11.465Z,1.70
2018-02-02T04:19:41.074Z,1.70
2018-02-02T04:22:09.044Z,1.70
2018-02-02T04:24:38.140Z,1.60
2018-02-02T04:27:07.035Z,1.70
2018-02-02T04:29:34.898Z,1.70
2018-02-02T04:32:03.789Z,1.70
2018-02-02T04:34:32.478Z,1.70
2018-02-02T04:37:00.342Z,1.70
2018-02-02T04:39:28.518Z,1.80
2018-02-02T04:41:57.204Z,1.70
2018-02-02T04:44:25.070Z,1.80
2018-02-02T04:46:53.860Z,1.80
2018-02-02T04:49:21.830Z,1.80
2018-02-02T04:51:49.696Z,1.80
2018-02-02T04:54:17.564Z,1.90
2018-02-02T04:56:45.739Z,1.90
2018-02-02T04:59:13.558Z,1.80
2018-02-02T05:01:41.265Z,1.80
2018-02-02T05:04:09.949Z,1.90
2018-02-02T05:06:38.460Z,2.00
2018-02-02T05:09:06.349Z,2.00
2018-02-02T05:11:34.144Z,2.00
2018-02-02T05:14:01.936Z,2.10
2018-02-02T05:16:29.911Z,2.00
2018-02-02T05:18:59.881Z,2.00
2018-02-02T05:21:27.691Z,2.00
2018-02-02T05:23:55.556Z,2.10
2018-02-02T05:26:24.345Z,2.20
2018-02-02T05:28:52.211Z,2.10
2018-02-02T05:31:20.797Z,2.10
2018-02-02T05:33:49.483Z,2.00
2018-02-02T05:36:17.355Z,2.00
2018-02-02T05:38:45.219Z,2.00
2018-02-02T05:41:13.084Z,2.10
2018-02-02T05:43:40.888Z,2.10
2018-02-02T05:46:08.605Z,2.10
2018-02-02T05:48:36.325Z,2.00
2018-02-02T05:51:04.805Z,2.10
2018-02-02T05:53:33.325Z,2.00
2018-02-02T05:56:01.034Z,2.00
2018-02-02T05:58:28.745Z,2.10
2018-02-02T06:00:56.571Z,2.10
2018-02-02T06:03:25.049Z,2.10
2018-02-02T06:05:53.526Z,2.20
2018-02-02T06:08:21.238Z,2.20
2018-02-02T06:10:48.953Z,2.20
2018-02-02T06:13:17.617Z,2.20
2018-02-02T06:15:45.405Z,2.20
2018-02-02T06:18:13.134Z,2.30
2018-02-02T06:20:40.865Z,2.20
2018-02-02T06:23:08.595Z,2.30
2018-02-02T06:25:36.321Z,2.30
2018-02-02T06:28:04.045Z,2.30
2018-02-02T06:30:32.521Z,2.30
2018-02-02T06:33:01.010Z,2.30
2018-02-02T06:35:29.501Z,2.30
2018-02-02T06:37:57.208Z,2.30
2018-02-02T06:40:24.924Z,2.30
2018-02-02T06:42:52.657Z,2.40
2018-02-02T06:45:20.385Z,2.40
2018-02-02T06:47:48.266Z,2.30
2018-02-02T06:50:15.982Z,2.30
2018-02-02T06:52:44.453Z,2.30
2018-02-02T06:55:12.937Z,2.20
2018-02-02T06:57:41.417Z,2.40
2018-02-02T07:00:10.057Z,2.40
2018-02-02T07:02:37.842Z,2.40
2018-02-02T07:05:05.557Z,2.30
2018-02-02T07:07:33.278Z,2.30
2018-02-02T07:10:00.993Z,2.30
2018-02-02T07:12:28.711Z,2.40
2018-02-02T07:14:56.426Z,2.40
2018-02-02T07:17:24.136Z,2.40
2018-02-02T07:19:51.837Z,2.40
2018-02-02T07:22:19.549Z,2.40
2018-02-02T07:24:47.261Z,2.40
2018-02-02T07:27:14.973Z,2.40
2018-02-02T07:29:42.684Z,2.50
2018-02-02T07:32:10.421Z,2.50
2018-02-02T07:34:38.133Z,2.60
2018-02-02T07:37:05.850Z,2.60
2018-02-02T07:39:34.338Z,2.70
2018-02-02T07:42:02.845Z,2.70
2018-02-02T07:44:30.561Z,2.70
2018-02-02T07:46:58.312Z,2.70
2018-02-02T07:49:26.025Z,2.70
2018-02-02T07:51:54.497Z,2.80
2018-02-02T07:54:22.997Z,2.70
2018-02-02T07:56:50.713Z,2.70
2018-02-02T07:59:18.417Z,2.80
2018-02-02T08:01:46.897Z,2.80
2018-02-02T08:04:15.417Z,2.80
2018-02-02T08:06:43.129Z,2.80
2018-02-02T08:09:11.608Z,2.80
2018-02-02T08:11:40.121Z,2.90
2018-02-02T08:14:07.828Z,2.80
2018-02-02T08:16:35.536Z,2.80
2018-02-02T08:19:04.013Z,2.90
2018-02-02T08:21:32.493Z,2.90
2018-02-02T08:24:00.965Z,2.90
2018-02-02T08:26:29.446Z,2.90
2018-02-02T08:28:57.922Z,3.00
2018-02-02T08:31:25.628Z,3.00
2018-02-02T08:33:53.351Z,3.00
2018-02-02T08:36:21.053Z,3.00
2018-02-02T08:38:48.767Z,3.00
2018-02-02T08:41:16.545Z,3.00
2018-02-02T08:43:44.245Z,3.00
2018-02-02T08:46:11.963Z,3.00
2018-02-02T08:48:39.681Z,3.00
2018-02-02T08:51:07.395Z,3.00
2018-02-02T08:53:35.109Z,3.00
2018-02-02T08:56:02.838Z,3.10
2018-02-02T08:58:31.318Z,3.20
2018-02-02T09:01:05.470Z,3.30
2018-02-02T09:03:33.197Z,3.20
2018-02-02T09:06:01.706Z,3.50
2018-02-02T09:08:29.430Z,3.50
2018-02-02T09:10:57.160Z,3.80
2018-02-02T09:13:24.871Z,3.90
2018-02-02T09:15:53.357Z,3.90
2018-02-02T09:18:21.842Z,3.90
2018-02-02T09:20:50.401Z,3.90
2018-02-02T09:23:18.128Z,3.90
2018-02-02T09:25:45.846Z,3.90
2018-02-02T09:28:14.389Z,4.00
2018-02-02T09:30:42.137Z,4.00
2018-02-02T09:33:09.861Z,4.40
2018-02-02T09:35:38.354Z,7.70
2018-02-02T09:38:06.081Z,7.60
2018-02-02T09:40:33.805Z,7.90
2018-02-02T09:43:01.592Z,8.00
2018-02-02T09:45:29.310Z,7.30
2018-02-02T09:47:57.033Z,6.60
2018-02-02T09:50:24.750Z,6.10
2018-02-02T09:52:52.464Z,5.60
2018-02-02T09:55:20.182Z,5.20
2018-02-02T09:57:47.942Z,5.00
2018-02-02T10:00:15.673Z,4.80
2018-02-02T10:02:44.157Z,4.50
2018-02-02T10:05:12.641Z,4.50
2018-02-02T10:07:41.129Z,4.50
2018-02-02T10:10:09.609Z,4.40
2018-02-02T10:12:38.142Z,4.40
2018-02-02T10:15:06.015Z,4.40
2018-02-02T10:17:33.721Z,4.40
2018-02-02T10:20:02.214Z,4.60
2018-02-02T10:22:29.925Z,4.50
2018-02-02T10:24:57.646Z,4.70
2018-02-02T10:27:25.366Z,4.70
2018-02-02T10:29:53.098Z,4.80
2018-02-02T10:32:20.817Z,4.90
2018-02-02T10:34:49.302Z,4.90
2018-02-02T10:37:17.780Z,5.00
2018-02-02T10:39:46.269Z,5.00
2018-02-02T10:42:14.758Z,5.00
2018-02-02T10:44:43.232Z,5.10
2018-02-02T10:47:11.711Z,5.20
2018-02-02T10:49:40.201Z,5.40
2018-02-02T10:52:08.681Z,5.50
2018-02-02T10:54:37.164Z,5.60
2018-02-02T10:57:04.921Z,5.50
2018-02-02T10:59:33.400Z,5.60
2018-02-02T11:02:07.636Z,5.60
2018-02-02T11:04:35.398Z,5.60
2018-02-02T11:07:03.209Z,5.50
2018-02-02T11:09:31.077Z,5.40
2018-02-02T11:11:58.793Z,5.30
2018-02-02T11:14:27.272Z,5.20
2018-02-02T11:16:55.137Z,5.30
2018-02-02T11:19:23.638Z,5.20
2018-02-02T11:21:51.345Z,5.20
2018-02-02T11:24:19.065Z,5.20
2018-02-02T11:26:46.782Z,5.20
2018-02-02T11:29:14.505Z,5.30
2018-02-02T11:31:42.220Z,5.30
2018-02-02T11:34:10.701Z,5.30
2018-02-02T11:36:38.449Z,5.30
2018-02-02T11:39:06.165Z,5.20
2018-02-02T11:41:33.883Z,5.20
2018-02-02T11:44:01.629Z,5.20
2018-02-02T11:46:29.353Z,5.20
2018-02-02T11:48:57.114Z,5.10
2018-02-02T11:51:24.840Z,5.10
2018-02-02T11:53:52.553Z,5.20
2018-02-02T11:56:20.275Z,5.10
2018-02-02T11:58:47.998Z,5.10
2018-02-02T12:01:15.880Z,5.00
2018-02-02T12:03:43.746Z,4.90
2018-02-02T12:06:11.520Z,4.80
2018-02-02T12:08:39.245Z,4.80
2018-02-02T12:11:06.965Z,4.70
2018-02-02T12:13:34.691Z,4.70
2018-02-02T12:16:02.421Z,4.60
2018-02-02T12:18:30.953Z,4.40
2018-02-02T12:20:58.710Z,4.40
2018-02-02T12:23:28.084Z,4.30
2018-02-02T12:26:01.515Z,4.20
2018-02-02T12:28:34.882Z,4.20
2018-02-02T12:31:17.469Z,4.20
2018-02-02T12:33:51.895Z,4.20
2018-02-02T12:36:22.319Z,4.10
2018-02-02T12:38:50.841Z,4.20
2018-02-02T12:41:18.606Z,4.10
2018-02-02T12:43:46.488Z,4.20
2018-02-02T12:46:14.355Z,4.10
2018-02-02T12:48:42.227Z,4.10
2018-02-02T12:51:17.301Z,4.10
2018-02-02T12:53:45.944Z,4.10
2018-02-02T12:56:13.812Z,4.10
2018-02-02T12:58:41.678Z,4.00
2018-02-02T13:01:09.401Z,4.10
2018-02-02T13:03:37.139Z,4.00
2018-02-02T13:06:04.852Z,4.00
2018-02-02T13:08:32.561Z,4.00
2018-02-02T13:11:00.277Z,4.10
2018-02-02T13:13:27.995Z,4.10
2018-02-02T13:15:56.481Z,4.10
2018-02-02T13:18:24.958Z,4.00
2018-02-02T13:20:53.441Z,4.00
2018-02-02T13:23:21.170Z,3.90
2018-02-02T13:25:48.889Z,3.90
2018-02-02T13:28:17.357Z,3.90
2018-02-02T13:30:45.843Z,4.00
2018-02-02T13:33:14.328Z,4.00
2018-02-02T13:35:42.809Z,4.00
2018-02-02T13:38:11.297Z,4.00
2018-02-02T13:40:39.836Z,4.00
2018-02-02T13:43:07.549Z,4.00
2018-02-02T13:45:35.297Z,4.10
2018-02-02T13:48:03.794Z,4.10
2018-02-02T13:50:31.520Z,4.10
2018-02-02T13:52:59.300Z,4.10
2018-02-02T13:55:27.017Z,4.10
2018-02-02T13:57:54.725Z,4.20
2018-02-02T14:00:22.509Z,4.20
2018-02-02T14:02:50.984Z,4.20
2018-02-02T14:05:19.461Z,4.30
2018-02-02T14:07:47.995Z,4.40
2018-02-02T14:10:15.709Z,4.40
2018-02-02T14:12:44.192Z,4.50
2018-02-02T14:15:12.672Z,4.50
2018-02-02T14:17:41.154Z,4.50
2018-02-02T14:20:09.633Z,4.60
2018-02-02T14:22:38.100Z,4.60
2018-02-02T14:25:05.805Z,4.50
2018-02-02T14:27:33.517Z,4.60
2018-02-02T14:30:01.225Z,4.60
2018-02-02T14:32:28.930Z,4.60
2018-02-02T14:34:56.654Z,4.60
2018-02-02T14:37:24.366Z,4.60
2018-02-02T14:39:52.084Z,4.60
2018-02-02T14:42:19.794Z,4.60
2018-02-02T14:44:47.513Z,4.60
2018-02-02T14:47:15.233Z,4.60
2018-02-02T14:49:42.932Z,4.60
2018-02-02T14:52:10.662Z,4.70
2018-02-02T14:54:38.364Z,4.90
2018-02-02T14:57:06.068Z,4.90
2018-02-02T14:59:33.768Z,5.00
2018-02-02T15:02:02.253Z,5.20
2018-02-02T15:04:30.728Z,5.30
2018-02-02T15:06:59.229Z,5.40
2018-02-02T15:09:27.701Z,5.50
2018-02-02T15:11:56.187Z,5.50
2018-02-02T15:14:24.693Z,5.50
2018-02-02T15:16:52.454Z,5.50
2018-02-02T15:19:20.170Z,5.50
2018-02-02T15:21:47.885Z,5.60
2018-02-02T15:24:15.616Z,5.50
2018-02-02T15:26:44.095Z,5.50
2018-02-02T15:29:12.577Z,5.50
2018-02-02T15:31:41.093Z,5.50
2018-02-02T15:34:08.821Z,5.50
2018-02-02T15:36:36.528Z,5.50
2018-02-02T15:39:04.328Z,5.50
2018-02-02T15:41:32.133Z,5.50
2018-02-02T15:44:00.621Z,5.50
2018-02-02T15:46:28.349Z,5.50
2018-02-02T15:48:56.163Z,5.50
2018-02-02T15:51:23.961Z,5.50
2018-02-02T15:53:51.680Z,5.50
2018-02-02T15:56:19.490Z,5.40
2018-02-02T15:58:47.358Z,5.40
2018-02-02T16:01:15.227Z,5.40
2018-02-02T16:03:43.092Z,5.40
2018-02-02T16:06:10.960Z,5.40
2018-02-02T16:08:38.827Z,5.40
2018-02-02T16:11:06.695Z,5.40
2018-02-02T16:13:34.561Z,5.40
2018-02-02T16:16:02.429Z,5.50
2018-02-02T16:18:30.296Z,5.50
2018-02-02T16:20:58.164Z,5.50
2018-02-02T16:23:26.033Z,5.40
2018-02-02T16:25:53.901Z,5.30
2018-02-02T16:28:21.766Z,5.30
2018-02-02T16:30:53.696Z,5.30
2018-02-02T16:33:24.129Z,5.30
2018-02-02T16:35:55.327Z,5.40
2018-02-02T16:38:26.972Z,5.40
2018-02-02T16:40:54.923Z,5.40
2018-02-02T16:43:22.794Z,5.40
2018-02-02T16:45:50.661Z,5.40
2018-02-02T16:48:18.527Z,5.50
2018-02-02T16:50:47.553Z,5.50
2018-02-02T16:53:15.326Z,5.50
2018-02-02T16:55:43.861Z,5.40
2018-02-02T16:58:11.616Z,5.40
2018-02-02T17:00:39.386Z,5.40
2018-02-02T17:03:07.112Z,5.40
2018-02-02T17:05:35.633Z,5.30
2018-02-02T17:08:03.388Z,5.30
2018-02-02T17:10:31.170Z,5.30
2018-02-02T17:12:59.041Z,5.20
2018-02-02T17:15:26.746Z,5.20
2018-02-02T17:17:55.241Z,5.20
2018-02-02T17:20:23.725Z,5.20
2018-02-02T17:22:52.206Z,5.20
2018-02-02T17:25:20.701Z,5.20
2018-02-02T17:27:48.421Z,5.20
2018-02-02T17:30:16.133Z,5.20
2018-02-02T17:32:43.848Z,5.20
2018-02-02T17:35:11.574Z,5.20
2018-02-02T17:37:39.333Z,5.20
2018-02-02T17:40:07.056Z,5.20
2018-02-02T17:42:35.874Z,5.30
2018-02-02T17:45:03.694Z,5.30
2018-02-02T17:47:31.414Z,5.30
2018-02-02T17:49:59.158Z,5.40
2018-02-02T17:52:26.878Z,5.40
2018-02-02T17:54:54.602Z,5.40
2018-02-02T17:57:22.321Z,5.40
2018-02-02T17:59:50.082Z,5.50
2018-02-02T18:02:20.602Z,5.50
2018-02-02T18:04:48.362Z,5.50
2018-02-02T18:07:16.122Z,5.50
2018-02-02T18:09:43.849Z,5.40
2018-02-02T18:12:11.573Z,5.50
2018-02-02T18:14:39.283Z,5.50
2018-02-02T18:17:07.038Z,5.50
2018-02-02T18:19:34.798Z,5.50
2018-02-02T18:22:02.513Z,5.30
2018-02-02T18:24:30.246Z,5.30
2018-02-02T18:26:57.986Z,5.20
2018-02-02T18:29:27.962Z,5.10
2018-02-02T18:31:56.906Z,5.10
2018-02-02T18:34:24.622Z,5.10
2018-02-02T18:36:52.341Z,5.10
2018-02-02T18:39:20.060Z,5.20
2018-02-02T18:41:47.787Z,5.20
2018-02-02T18:44:15.506Z,5.20
2018-02-02T18:46:43.269Z,5.10
2018-02-02T18:49:11.753Z,5.20
2018-02-02T18:51:40.228Z,5.20
2018-02-02T18:54:08.714Z,5.20
2018-02-02T18:56:37.201Z,5.20
2018-02-02T18:59:05.726Z,5.20
2018-02-02T19:01:33.456Z,5.10
2018-02-02T19:04:01.181Z,5.10
2018-02-02T19:06:28.893Z,5.10
2018-02-02T19:08:56.604Z,5.00
2018-02-02T19:11:24.337Z,5.00
2018-02-02T19:13:52.077Z,5.00
2018-02-02T19:16:19.797Z,5.00
2018-02-02T19:18:47.550Z,5.00
2018-02-02T19:21:15.264Z,5.00
2018-02-02T19:23:43.740Z,5.00
2018-02-02T19:26:12.228Z,5.00
2018-02-02T19:28:40.713Z,5.00
2018-02-02T19:31:08.437Z,4.90
2018-02-02T19:33:36.158Z,4.90
2018-02-02T19:36:03.885Z,4.90
2018-02-02T19:38:32.383Z,4.80
2018-02-02T19:41:00.906Z,4.80
2018-02-02T19:43:28.654Z,4.80
2018-02-02T19:45:56.406Z,4.80
2018-02-02T19:48:24.126Z,4.70
2018-02-02T19:50:51.882Z,4.70
2018-02-02T19:53:19.607Z,4.70
2018-02-02T19:55:47.364Z,4.70
2018-02-02T19:58:15.113Z,4.60
2018-02-02T20:00:43.597Z,4.40
2018-02-02T20:03:12.077Z,4.40
2018-02-02T20:05:40.566Z,4.30
2018-02-02T20:08:08.401Z,4.30
2018-02-02T20:10:36.112Z,4.30
2018-02-02T20:13:03.850Z,4.30
2018-02-02T20:15:32.334Z,4.20
2018-02-02T20:18:00.818Z,4.10
2018-02-02T20:20:29.326Z,4.00
2018-02-02T20:22:57.050Z,4.00
2018-02-02T20:25:25.538Z,3.90
2018-02-02T20:27:54.027Z,3.80
2018-02-02T20:30:22.510Z,3.80
2018-02-02T20:32:50.984Z,3.70
2018-02-02T20:35:19.468Z,3.70
2018-02-02T20:37:47.956Z,3.70
2018-02-02T20:40:16.529Z,3.70
2018-02-02T20:42:45.035Z,3.60
2018-02-02T20:45:12.744Z,3.60
2018-02-02T20:47:40.475Z,3.50
2018-02-02T20:50:08.266Z,3.50
2018-02-02T20:52:36.758Z,3.50
2018-02-02T20:55:04.478Z,3.50
2018-02-02T20:57:32.206Z,3.50
2018-02-02T20:59:59.921Z,3.50
2018-02-02T21:02:27.648Z,3.50
2018-02-02T21:04:56.141Z,3.50
2018-02-02T21:07:23.858Z,3.50
2018-02-02T21:09:51.581Z,3.50
2018-02-02T21:12:19.316Z,3.40
2018-02-02T21:14:47.793Z,3.40
2018-02-02T21:17:16.277Z,3.50
2018-02-02T21:22:18.732Z,3.50
2018-02-02T21:24:46.441Z,3.50
2018-02-02T21:27:14.925Z,3.50
2018-02-02T21:29:43.413Z,3.60
2018-02-02T21:32:11.122Z,3.50
2018-02-02T21:34:38.838Z,3.60
2018-02-02T21:37:06.560Z,3.60
2018-02-02T21:39:34.265Z,3.60
2018-02-02T21:42:02.757Z,3.60
2018-02-02T21:44:30.479Z,3.60
2018-02-02T21:46:58.194Z,3.60
2018-02-02T21:49:25.900Z,3.60
2018-02-02T21:51:53.613Z,3.50
2018-02-02T21:54:21.313Z,3.50
2018-02-02T21:56:49.024Z,3.60
2018-02-02T21:59:17.500Z,3.60
2018-02-02T22:01:46.001Z,3.60
2018-02-02T22:04:13.770Z,3.60
2018-02-02T22:06:41.513Z,3.50
2018-02-02T22:09:09.988Z,3.40
2018-02-02T22:11:38.483Z,3.40
2018-02-02T22:14:06.966Z,3.40
2018-02-02T22:16:35.457Z,3.40
2018-02-02T22:19:03.182Z,3.30
2018-02-02T22:21:30.952Z,3.40
2018-02-02T22:23:58.661Z,3.50
2018-02-02T22:26:26.378Z,3.50
2018-02-02T22:28:54.218Z,3.50
2018-02-02T22:31:21.928Z,3.50
2018-02-02T22:33:50.416Z,3.50
2018-02-02T22:36:18.914Z,3.50
2018-02-02T22:38:46.650Z,3.50
2018-02-02T22:41:15.133Z,3.60
2018-02-02T22:43:43.658Z,3.70
2018-02-02T22:46:11.389Z,3.70
2018-02-02T22:48:39.874Z,3.70
2018-02-02T22:51:07.609Z,3.70
2018-02-02T22:53:35.402Z,3.70
2018-02-02T22:56:03.898Z,3.80
2018-02-02T22:58:31.645Z,3.80
2018-02-02T23:01:00.129Z,3.90
2018-02-02T23:03:28.613Z,3.90
2018-02-02T23:05:56.330Z,3.90
2018-02-02T23:08:24.062Z,3.90
2018-02-02T23:10:51.778Z,3.90
2018-02-02T23:13:19.501Z,3.80
2018-02-02T23:15:47.218Z,3.80
2018-02-02T23:18:15.698Z,3.90
2018-02-02T23:20:44.167Z,3.90
2018-02-02T23:23:11.891Z,3.90
2018-02-02T23:25:39.604Z,3.90
2018-02-02T23:28:07.314Z,4.00
2018-02-02T23:30:35.026Z,4.00
2018-02-02T23:33:02.779Z,4.10
2018-02-02T23:35:30.494Z,4.10
2018-02-02T23:37:58.205Z,4.00
2018-02-02T23:40:25.917Z,4.00
2018-02-02T23:42:53.629Z,4.00
2018-02-02T23:45:21.341Z,3.90
2018-02-02T23:47:49.053Z,3.90
2018-02-02T23:50:16.778Z,3.80
2018-02-02T23:52:44.492Z,3.80
2018-02-02T23:55:14.920Z,3.80
2018-02-02T23:57:42.640Z,3.80
